createdAt,value
2022-11-17T00:00:42.669Z,97254.84
2022-11-17T00:03:15.851Z,97247.53
2022-11-17T00:05:44.887Z,97245.66
2022-11-17T00:08:12.022Z,97251.66
2022-11-17T00:10:39.201Z,97250.25
2022-11-17T00:13:24.580Z,97245.00
2022-11-17T00:15:51.786Z,97241.63
2022-11-17T00:18:37.706Z,97244.41
2022-11-17T00:21:21.429Z,97240.09
2022-11-17T00:23:49.852Z,97240.28
2022-11-17T00:27:02.783Z,97238.59
2022-11-17T00:29:30.292Z,97233.31
2022-11-17T00:32:17.038Z,97234.00
2022-11-17T00:34:44.173Z,97236.44
2022-11-17T00:37:13.254Z,97238.03
2022-11-17T00:39:40.166Z,97232.09
2022-11-17T00:42:07.244Z,97230.53
2022-11-17T00:44:34.058Z,97225.28
2022-11-17T00:47:01.159Z,97222.72
2022-11-17T00:49:27.964Z,97217.47
2022-11-17T00:51:56.423Z,97218.97
2022-11-17T00:54:24.011Z,97218.88
2022-11-17T00:56:51.397Z,97220.69
2022-11-17T00:59:18.464Z,97215.50
2022-11-17T01:01:48.000Z,97207.63
2022-11-17T01:04:15.888Z,97213.63
2022-11-17T01:06:46.941Z,97210.06
2022-11-17T01:09:20.794Z,97206.69
2022-11-17T01:11:50.970Z,97204.81
2022-11-17T01:14:22.663Z,97202.09
2022-11-17T01:16:50.928Z,97207.28
2022-11-17T01:19:19.004Z,97216.91
2022-11-17T01:21:47.147Z,97217.88
2022-11-17T01:24:16.490Z,97221.59
2022-11-17T01:26:45.877Z,97209.50
2022-11-17T01:29:17.244Z,97210.50
2022-11-17T01:31:49.157Z,97209.69
2022-11-17T01:34:16.035Z,97215.03
2022-11-17T01:37:03.117Z,97209.00
2022-11-17T01:39:32.215Z,97207.22
2022-11-17T01:42:16.258Z,97208.06
2022-11-17T01:44:54.664Z,97208.06
2022-11-17T01:47:33.730Z,97210.78
2022-11-17T01:50:39.999Z,97208.94
2022-11-17T01:53:14.082Z,97211.47
2022-11-17T01:55:50.505Z,97201.22
2022-11-17T01:58:37.943Z,97206.38
2022-11-17T02:01:04.990Z,97206.91
2022-11-17T02:03:34.844Z,97191.34
2022-11-17T02:06:15.583Z,97202.03
2022-11-17T02:08:49.242Z,97203.91
2022-11-17T02:11:19.532Z,97200.19
2022-11-17T02:13:47.131Z,97202.16
2022-11-17T02:16:16.688Z,97195.19
2022-11-17T02:18:46.817Z,97200.88
2022-11-17T02:22:05.833Z,97205.09
2022-11-17T02:25:05.187Z,97204.44
2022-11-17T02:28:00.652Z,97205.56
2022-11-17T02:30:48.449Z,97198.50
2022-11-17T02:33:38.701Z,97199.63
2022-11-17T02:36:22.893Z,97198.84
2022-11-17T02:39:20.167Z,97192.75
2022-11-17T02:42:01.250Z,97198.84
2022-11-17T02:44:47.549Z,97196.50
2022-11-17T02:47:23.820Z,97190.59
2022-11-17T02:49:59.039Z,97189.03
2022-11-17T02:52:29.794Z,97181.09
2022-11-17T02:55:08.306Z,97190.66
2022-11-17T02:57:41.591Z,97193.88
2022-11-17T03:00:18.862Z,97192.19
2022-11-17T03:03:23.366Z,97193.69
2022-11-17T03:06:10.965Z,97192.41
2022-11-17T03:09:21.874Z,97196.59
2022-11-17T03:11:58.158Z,97197.50
2022-11-17T03:14:45.102Z,97191.66
2022-11-17T03:17:23.786Z,97195.22
2022-11-17T03:20:19.641Z,97191.59
2022-11-17T03:23:08.667Z,97202.75
2022-11-17T03:25:41.640Z,97204.53
2022-11-17T03:28:12.442Z,97205.97
2022-11-17T03:30:45.536Z,97202.59
2022-11-17T03:33:20.144Z,97206.31
2022-11-17T03:36:01.343Z,97192.34
2022-11-17T03:38:35.491Z,97203.88
2022-11-17T03:41:06.991Z,97201.25
2022-11-17T03:43:34.724Z,97198.19
2022-11-17T03:46:13.141Z,97203.28
2022-11-17T03:48:50.282Z,97202.78
2022-11-17T03:51:25.212Z,97205.63
2022-11-17T03:53:54.671Z,97201.22
2022-11-17T03:57:01.092Z,97197.84
2022-11-17T04:00:08.520Z,97196.66
2022-11-17T04:02:35.915Z,97199.38
2022-11-17T04:05:05.974Z,97196.13
2022-11-17T04:07:45.710Z,97197.09
2022-11-17T04:10:19.355Z,97194.31
2022-11-17T04:13:07.639Z,97191.41
2022-11-17T04:15:52.911Z,97204.28
2022-11-17T04:18:22.173Z,97200.38
2022-11-17T04:20:55.345Z,97195.03
2022-11-17T04:23:25.417Z,97188.44
2022-11-17T04:26:14.748Z,97189.31
2022-11-17T04:28:49.434Z,97191.13
2022-11-17T04:31:19.029Z,97193.09
2022-11-17T04:33:58.787Z,97202.56
2022-11-17T04:36:46.168Z,97193.84
2022-11-17T04:39:15.781Z,97193.69
2022-11-17T04:42:03.208Z,97196.22
2022-11-17T04:44:32.724Z,97193.53
2022-11-17T04:47:03.068Z,97192.41
2022-11-17T04:49:32.129Z,97194.88
2022-11-17T04:51:59.075Z,97190.50
2022-11-17T04:54:26.208Z,97187.94
2022-11-17T04:56:54.678Z,97189.97
2022-11-17T04:59:22.342Z,97185.50
2022-11-17T05:01:50.143Z,97188.94
2022-11-17T05:04:38.388Z,97192.41
2022-11-17T05:07:06.457Z,97185.06
2022-11-17T05:09:33.616Z,97177.34
2022-11-17T05:12:18.949Z,97170.66
2022-11-17T05:14:49.080Z,97178.78
2022-11-17T05:17:16.677Z,97173.44
2022-11-17T05:19:47.144Z,97174.28
2022-11-17T05:22:51.270Z,97178.09
2022-11-17T05:25:18.590Z,97179.00
2022-11-17T05:27:45.371Z,97182.59
2022-11-17T05:30:13.138Z,97186.97
2022-11-17T05:32:39.971Z,97178.03
2022-11-17T05:35:07.608Z,97175.41
2022-11-17T05:37:34.377Z,97158.75
2022-11-17T05:40:01.378Z,97159.06
2022-11-17T05:42:28.167Z,97150.53
2022-11-17T05:44:55.291Z,97154.13
2022-11-17T05:47:22.115Z,97157.19
2022-11-17T05:49:49.110Z,97164.22
2022-11-17T05:52:15.989Z,97158.84
2022-11-17T05:54:43.172Z,97153.97
2022-11-17T05:57:19.894Z,97142.31
2022-11-17T05:59:55.420Z,97143.41
2022-11-17T06:02:54.763Z,97153.88
2022-11-17T06:05:24.010Z,97155.81
2022-11-17T06:07:54.909Z,97150.22
2022-11-17T06:10:21.648Z,97148.34
2022-11-17T06:12:48.890Z,97140.81
2022-11-17T06:15:15.899Z,97138.03
2022-11-17T06:17:58.477Z,97141.69
2022-11-17T06:20:30.526Z,97154.66
2022-11-17T06:23:05.263Z,97167.63
2022-11-17T06:25:35.400Z,97155.28
2022-11-17T06:28:07.851Z,97159.59
2022-11-17T06:30:37.556Z,97161.16
2022-11-17T06:33:10.598Z,97166.47
2022-11-17T06:35:38.655Z,97162.81
2022-11-17T06:38:05.820Z,97171.28
2022-11-17T06:40:32.711Z,97171.63
2022-11-17T06:43:12.536Z,97176.94
2022-11-17T06:45:46.042Z,97181.84
2022-11-17T06:48:16.834Z,97186.78
2022-11-17T06:50:44.540Z,97192.78
2022-11-17T06:53:12.857Z,97190.09
2022-11-17T06:55:39.972Z,97196.06
2022-11-17T06:58:11.735Z,97190.53
2022-11-17T07:00:39.049Z,97191.19
2022-11-17T07:03:09.297Z,97196.50
2022-11-17T07:05:40.089Z,97186.41
2022-11-17T07:08:08.750Z,97181.59
2022-11-17T07:10:36.708Z,97174.06
2022-11-17T07:13:04.036Z,97174.56
2022-11-17T07:15:31.889Z,97172.84
2022-11-17T07:17:59.072Z,97171.50
2022-11-17T07:20:25.996Z,97162.94
2022-11-17T07:23:00.050Z,97152.22
2022-11-17T07:25:26.952Z,97159.91
2022-11-17T07:27:59.562Z,97158.09
2022-11-17T07:30:26.992Z,97156.97
2022-11-17T07:32:54.994Z,97164.09
2022-11-17T07:35:21.970Z,97162.00
2022-11-17T07:37:50.313Z,97161.03
2022-11-17T07:40:17.336Z,97169.63
2022-11-17T07:42:50.910Z,97172.03
2022-11-17T07:45:18.315Z,97175.47
2022-11-17T07:47:45.375Z,97179.88
2022-11-17T07:50:12.265Z,97194.06
2022-11-17T07:52:41.549Z,97181.06
2022-11-17T07:55:08.869Z,97185.34
2022-11-17T07:57:36.616Z,97192.59
2022-11-17T08:00:04.695Z,97181.88
2022-11-17T08:02:31.778Z,97174.78
2022-11-17T08:04:58.682Z,97172.69
2022-11-17T08:07:25.829Z,97182.00
2022-11-17T08:09:52.800Z,97168.22
2022-11-17T08:12:19.923Z,97163.66
2022-11-17T08:14:46.779Z,97161.41
2022-11-17T08:17:14.123Z,97163.63
2022-11-17T08:19:41.092Z,97162.88
2022-11-17T08:22:08.310Z,97156.00
2022-11-17T08:24:35.155Z,97163.34
2022-11-17T08:27:02.312Z,97172.91
2022-11-17T08:29:29.178Z,97172.56
2022-11-17T08:31:56.349Z,97165.97
2022-11-17T08:34:23.347Z,97180.84
2022-11-17T08:36:50.575Z,97172.84
2022-11-17T08:39:17.471Z,97169.63
2022-11-17T08:41:44.723Z,97162.38
2022-11-17T08:44:11.606Z,97160.63
2022-11-17T08:46:38.798Z,97165.59
2022-11-17T08:49:05.769Z,97168.91
2022-11-17T08:51:33.302Z,97182.59
2022-11-17T08:54:00.323Z,97176.75
2022-11-17T08:56:27.622Z,97173.91
2022-11-17T08:58:54.698Z,97179.16
2022-11-17T09:01:21.888Z,97185.94
2022-11-17T09:03:49.065Z,97188.44
2022-11-17T09:06:18.131Z,97206.41
2022-11-17T09:08:56.479Z,97203.72
2022-11-17T09:11:23.869Z,97207.31
2022-11-17T09:13:51.025Z,97217.72
2022-11-17T09:16:18.602Z,97223.56
2022-11-17T09:18:45.768Z,97216.81
2022-11-17T09:21:15.755Z,97215.78
2022-11-17T09:23:43.325Z,97223.66
2022-11-17T09:26:14.671Z,97217.66
2022-11-17T09:28:43.070Z,97214.28
2022-11-17T09:31:14.429Z,97206.09
2022-11-17T09:33:43.348Z,97204.22
2022-11-17T09:36:12.844Z,97201.53
2022-11-17T09:38:40.842Z,97198.75
2022-11-17T09:41:33.446Z,97210.69
2022-11-17T09:44:39.994Z,97214.13
2022-11-17T09:47:48.044Z,97215.75
2022-11-17T09:50:37.299Z,97211.00
2022-11-17T09:53:29.466Z,97211.69
2022-11-17T09:56:02.735Z,97208.81
2022-11-17T09:58:50.996Z,97201.91
2022-11-17T10:01:22.055Z,97200.72
2022-11-17T10:03:53.633Z,97204.09
2022-11-17T10:06:28.694Z,97209.00
2022-11-17T10:09:07.043Z,97213.38
2022-11-17T10:11:41.483Z,97214.25
2022-11-17T10:14:08.615Z,97204.44
2022-11-17T10:16:37.663Z,97209.84
2022-11-17T10:19:20.163Z,97210.44
2022-11-17T10:21:57.788Z,97223.03
2022-11-17T10:24:38.844Z,97230.84
2022-11-17T10:27:23.556Z,97232.84
2022-11-17T10:30:20.108Z,97230.47
2022-11-17T10:32:56.946Z,97229.56
2022-11-17T10:35:36.382Z,97229.91
2022-11-17T10:38:13.849Z,97227.81
2022-11-17T10:40:40.917Z,97231.09
2022-11-17T10:43:13.864Z,97219.84
2022-11-17T10:45:50.978Z,97224.00
2022-11-17T10:48:31.830Z,97219.50
2022-11-17T10:51:19.564Z,97210.22
2022-11-17T10:54:17.153Z,97199.88
2022-11-17T10:56:52.092Z,97198.75
2022-11-17T10:59:20.745Z,97186.69
2022-11-17T11:01:51.519Z,97175.94
2022-11-17T11:04:32.312Z,97168.66
2022-11-17T11:07:28.914Z,97160.03
2022-11-17T11:10:26.417Z,97169.66
2022-11-17T11:13:44.275Z,97157.88
2022-11-17T11:16:12.096Z,97164.50
2022-11-17T11:18:39.520Z,97173.88
2022-11-17T11:21:50.591Z,97154.88
2022-11-17T11:24:34.953Z,97152.47
2022-11-17T11:27:28.244Z,97154.25
2022-11-17T11:30:06.319Z,97163.06
2022-11-17T11:32:58.586Z,97164.34
2022-11-17T11:36:02.436Z,97161.59
2022-11-17T11:39:04.027Z,97148.16
2022-11-17T11:41:36.938Z,97147.31
2022-11-17T11:44:22.986Z,97146.19
2022-11-17T11:47:26.944Z,97128.00
2022-11-17T11:50:11.176Z,97129.44
2022-11-17T11:52:44.847Z,97117.41
2022-11-17T11:55:24.831Z,97114.53
2022-11-17T11:58:17.376Z,97104.03
2022-11-17T12:00:49.465Z,97101.56
2022-11-17T12:03:24.264Z,97089.25
2022-11-17T12:06:41.772Z,97091.25
2022-11-17T12:09:36.792Z,97090.06
2022-11-17T12:12:14.559Z,97085.56
2022-11-17T12:15:19.274Z,97090.72
2022-11-17T12:18:29.366Z,97096.38
2022-11-17T12:21:06.020Z,97091.88
2022-11-17T12:23:48.491Z,97097.97
2022-11-17T12:26:31.588Z,97102.47
2022-11-17T12:29:20.346Z,97093.47
2022-11-17T12:31:56.689Z,97084.94
2022-11-17T12:34:33.926Z,97087.06
2022-11-17T12:37:19.346Z,97082.84
2022-11-17T12:40:11.611Z,97079.81
2022-11-17T12:43:16.873Z,97072.69
2022-11-17T12:45:55.909Z,97083.03
2022-11-17T12:48:35.112Z,97086.56
2022-11-17T12:51:34.673Z,97086.31
2022-11-17T12:54:38.412Z,97082.63
2022-11-17T12:57:13.348Z,97084.25
2022-11-17T13:00:02.662Z,97072.97
2022-11-17T13:02:58.014Z,97077.13
2022-11-17T13:05:30.216Z,97083.03
2022-11-17T13:08:13.900Z,97075.16
2022-11-17T13:10:41.848Z,97075.81
2022-11-17T13:13:24.452Z,97059.22
2022-11-17T13:15:55.881Z,97058.19
2022-11-17T13:18:41.232Z,97060.91
2022-11-17T13:21:26.686Z,97064.56
2022-11-17T13:23:54.040Z,97061.53
2022-11-17T13:26:35.841Z,97063.41
2022-11-17T13:29:09.950Z,97056.78
2022-11-17T13:31:37.213Z,97048.81
2022-11-17T13:34:10.253Z,97040.03
2022-11-17T13:36:52.955Z,97039.91
2022-11-17T13:39:25.739Z,97044.88
2022-11-17T13:41:56.435Z,97039.72
2022-11-17T13:44:27.106Z,97037.00
2022-11-17T13:46:54.258Z,97037.00
2022-11-17T13:49:34.537Z,97044.38
2022-11-17T13:52:04.805Z,97045.47
2022-11-17T13:54:32.545Z,97038.47
2022-11-17T13:57:08.756Z,97052.78
2022-11-17T13:59:39.207Z,97057.94
2022-11-17T14:02:26.168Z,97058.97
2022-11-17T14:05:11.238Z,97056.34
2022-11-17T14:07:40.051Z,97061.59
2022-11-17T14:10:22.406Z,97067.00
2022-11-17T14:12:53.490Z,97063.72
2022-11-17T14:15:28.520Z,97061.94
2022-11-17T14:17:59.955Z,97057.81
2022-11-17T14:20:36.212Z,97063.81
2022-11-17T14:23:10.532Z,97058.56
2022-11-17T14:25:53.162Z,97061.19
2022-11-17T14:28:25.514Z,97060.44
2022-11-17T14:30:57.836Z,97057.22
2022-11-17T14:33:25.941Z,97056.53
2022-11-17T14:35:57.043Z,97050.44
2022-11-17T14:38:24.803Z,97058.31
2022-11-17T14:40:53.566Z,97052.31
2022-11-17T14:43:21.983Z,97052.41
2022-11-17T14:45:50.537Z,97048.88
2022-11-17T14:48:19.685Z,97048.94
2022-11-17T14:50:47.548Z,97048.94
2022-11-17T14:53:15.120Z,97050.63
2022-11-17T14:55:41.990Z,97055.03
2022-11-17T14:58:10.036Z,97054.28
2022-11-17T15:00:37.734Z,97058.50
2022-11-17T15:03:05.338Z,97058.06
2022-11-17T15:05:32.588Z,97065.84
2022-11-17T15:08:00.107Z,97056.91
2022-11-17T15:10:26.966Z,97062.31
2022-11-17T15:12:54.145Z,97071.09
2022-11-17T15:15:21.166Z,97064.69
2022-11-17T15:17:48.227Z,97064.53
2022-11-17T15:20:15.211Z,97070.09
2022-11-17T15:22:42.492Z,97071.69
2022-11-17T15:25:09.698Z,97065.53
2022-11-17T15:27:36.782Z,97080.59
2022-11-17T15:30:04.856Z,97075.50
2022-11-17T15:32:32.145Z,97073.81
2022-11-17T15:34:59.058Z,97078.13
2022-11-17T15:37:26.281Z,97075.19
2022-11-17T15:39:53.819Z,97073.38
2022-11-17T15:42:20.968Z,97068.31
2022-11-17T15:44:47.800Z,97064.09
2022-11-17T15:47:14.919Z,97067.22
2022-11-17T15:49:41.771Z,97048.88
2022-11-17T15:52:08.874Z,97064.69
2022-11-17T15:54:35.703Z,97060.81
2022-11-17T15:57:02.909Z,97057.75
2022-11-17T15:59:29.964Z,97060.94
2022-11-17T16:01:57.145Z,97068.81
2022-11-17T16:04:24.349Z,97070.44
2022-11-17T16:06:51.625Z,97062.66
2022-11-17T16:09:18.731Z,97055.88
2022-11-17T16:11:46.032Z,97059.53
2022-11-17T16:14:14.849Z,97056.72
2022-11-17T16:16:42.247Z,97065.34
2022-11-17T16:19:09.348Z,97058.25
2022-11-17T16:21:36.503Z,97051.97
2022-11-17T16:24:03.618Z,97051.78
2022-11-17T16:26:31.372Z,97048.16
2022-11-17T16:29:01.823Z,97042.16
2022-11-17T16:31:32.916Z,97055.34
2022-11-17T16:34:21.915Z,97059.56
2022-11-17T16:36:49.132Z,97056.03
2022-11-17T16:39:17.650Z,97051.63
2022-11-17T16:41:45.757Z,97053.16
2022-11-17T16:44:17.144Z,97059.97
2022-11-17T16:46:47.884Z,97065.31
2022-11-17T16:49:18.343Z,97058.09
2022-11-17T16:51:51.679Z,97062.25
2022-11-17T16:54:19.827Z,97062.94
2022-11-17T16:56:47.094Z,97065.22
2022-11-17T16:59:15.029Z,97064.84
2022-11-17T17:01:42.424Z,97066.78
2022-11-17T17:04:10.996Z,97065.09
2022-11-17T17:06:44.083Z,97067.06
2022-11-17T17:09:14.111Z,97078.81
2022-11-17T17:11:41.756Z,97077.69
2022-11-17T17:14:13.318Z,97066.72
2022-11-17T17:16:41.489Z,97058.34
2022-11-17T17:19:11.914Z,97060.97
2022-11-17T17:21:40.959Z,97062.66
2022-11-17T17:24:09.282Z,97063.50
2022-11-17T17:26:39.197Z,97059.47
2022-11-17T17:29:06.655Z,97061.06
2022-11-17T17:31:38.008Z,97063.75
2022-11-17T17:34:06.656Z,97055.97
2022-11-17T17:36:35.193Z,97050.63
2022-11-17T17:39:03.542Z,97054.13
2022-11-17T17:41:35.097Z,97054.78
2022-11-17T17:44:05.281Z,97057.34
2022-11-17T17:46:37.503Z,97055.53
2022-11-17T17:49:05.075Z,97056.22
2022-11-17T17:51:32.185Z,97054.25
2022-11-17T17:54:02.067Z,97048.81
2022-11-17T17:56:30.801Z,97054.91
2022-11-17T17:58:58.690Z,97053.41
2022-11-17T18:01:29.386Z,97051.97
2022-11-17T18:04:04.725Z,97058.34
2022-11-17T18:06:39.087Z,97060.03
2022-11-17T18:09:07.994Z,97060.03
2022-11-17T18:11:35.950Z,97057.13
2022-11-17T18:14:04.321Z,97057.13
2022-11-17T18:16:34.086Z,97060.44
2022-11-17T18:19:05.462Z,97055.09
2022-11-17T18:21:33.331Z,97066.44
2022-11-17T18:24:02.429Z,97059.41
2022-11-17T18:26:35.511Z,97060.34
2022-11-17T18:29:14.806Z,97062.03
2022-11-17T18:31:43.034Z,97065.41
2022-11-17T18:34:25.517Z,97064.47
2022-11-17T18:36:58.405Z,97058.09
2022-11-17T18:39:25.477Z,97056.13
2022-11-17T18:41:52.728Z,97063.00
2022-11-17T18:44:20.053Z,97053.50
2022-11-17T18:46:47.817Z,97066.16
2022-11-17T18:49:15.000Z,97063.75
2022-11-17T18:51:42.666Z,97064.41
2022-11-17T18:54:12.632Z,97068.78
2022-11-17T18:56:40.147Z,97066.66
2022-11-17T18:59:11.818Z,97063.75
2022-11-17T19:01:42.870Z,97068.16
2022-11-17T19:04:13.713Z,97070.31
2022-11-17T19:06:41.275Z,97071.63
2022-11-17T19:09:08.584Z,97072.19
2022-11-17T19:11:35.960Z,97071.28
2022-11-17T19:14:07.292Z,97067.91
2022-11-17T19:16:44.076Z,97073.34
2022-11-17T19:19:13.663Z,97071.47
2022-11-17T19:21:41.524Z,97071.09
2022-11-17T19:24:09.159Z,97062.28
2022-11-17T19:26:36.339Z,97074.81
2022-11-17T19:29:14.303Z,97075.97
2022-11-17T19:31:43.992Z,97074.34
2022-11-17T19:34:11.462Z,97058.28
2022-11-17T19:36:39.488Z,97057.72
2022-11-17T19:39:06.497Z,97066.06
2022-11-17T19:41:38.618Z,97072.69
2022-11-17T19:44:08.763Z,97075.31
2022-11-17T19:46:37.175Z,97076.88
2022-11-17T19:49:06.136Z,97062.25
2022-11-17T19:51:37.023Z,97060.72
2022-11-17T19:54:08.027Z,97063.19
2022-11-17T19:56:36.491Z,97047.44
2022-11-17T19:59:03.658Z,97055.41
2022-11-17T20:01:32.246Z,97053.97
2022-11-17T20:04:01.196Z,97053.25
2022-11-17T20:06:36.199Z,97044.88
2022-11-17T20:09:12.522Z,97041.28
2022-11-17T20:11:40.987Z,97042.50
2022-11-17T20:14:08.032Z,97051.38
2022-11-17T20:16:36.853Z,97046.34
2022-11-17T20:19:03.847Z,97047.34
2022-11-17T20:21:31.895Z,97044.16
2022-11-17T20:23:59.440Z,97042.38
2022-11-17T20:26:32.649Z,97043.97
2022-11-17T20:29:01.069Z,97053.34
2022-11-17T20:31:33.054Z,97054.78
2022-11-17T20:34:02.149Z,97063.34
2022-11-17T20:36:32.659Z,97072.97
2022-11-17T20:39:03.824Z,97078.31
2022-11-17T20:41:31.344Z,97082.88
2022-11-17T20:44:00.466Z,97086.13
2022-11-17T20:46:28.281Z,97088.75
2022-11-17T20:48:55.307Z,97089.50
2022-11-17T20:51:25.038Z,97086.78
2022-11-17T20:53:52.722Z,97091.78
2022-11-17T20:56:21.961Z,97092.38
2022-11-17T20:58:49.090Z,97092.38
2022-11-17T21:01:19.873Z,97085.41
2022-11-17T21:03:47.650Z,97091.53
2022-11-17T21:06:15.959Z,97090.75
2022-11-17T21:08:45.019Z,97092.28
2022-11-17T21:11:37.314Z,97093.13
2022-11-17T21:14:07.465Z,97088.09
2022-11-17T21:16:37.819Z,97082.09
2022-11-17T21:19:05.704Z,97079.19
2022-11-17T21:21:33.396Z,97080.06
2022-11-17T21:24:00.291Z,97080.88
2022-11-17T21:26:28.115Z,97085.28
2022-11-17T21:28:58.402Z,97092.22
2022-11-17T21:31:31.289Z,97092.28
2022-11-17T21:34:02.532Z,97092.88
2022-11-17T21:36:34.413Z,97094.50
2022-11-17T21:39:02.033Z,97092.63
2022-11-17T21:41:34.768Z,97093.56
2022-11-17T21:44:03.189Z,97097.13
2022-11-17T21:46:33.959Z,97110.25
2022-11-17T21:49:01.609Z,97104.81
2022-11-17T21:51:33.513Z,97104.06
2022-11-17T21:54:08.689Z,97102.63
2022-11-17T21:56:36.676Z,97094.09
2022-11-17T21:59:12.477Z,97102.91
2022-11-17T22:01:40.393Z,97094.84
2022-11-17T22:04:07.321Z,97085.28
2022-11-17T22:06:34.821Z,97091.28
2022-11-17T22:09:01.633Z,97100.66
2022-11-17T22:11:37.609Z,97098.81
2022-11-17T22:14:08.119Z,97112.03
2022-11-17T22:16:38.139Z,97105.84
2022-11-17T22:19:06.208Z,97106.69
2022-11-17T22:21:33.816Z,97117.28
2022-11-17T22:24:00.858Z,97108.81
2022-11-17T22:26:28.293Z,97119.50
2022-11-17T22:28:56.083Z,97125.56
2022-11-17T22:31:24.146Z,97127.19
2022-11-17T22:33:51.705Z,97128.69
2022-11-17T22:36:19.913Z,97116.41
2022-11-17T22:38:51.439Z,97114.25
2022-11-17T22:41:21.932Z,97114.75
2022-11-17T22:43:55.146Z,97102.31
2022-11-17T22:46:26.374Z,97099.69
2022-11-17T22:48:53.621Z,97096.75
2022-11-17T22:51:40.035Z,97087.16
2022-11-17T22:54:08.627Z,97091.50
2022-11-17T22:56:36.412Z,97096.47
2022-11-17T22:59:03.633Z,97090.38
2022-11-17T23:01:30.892Z,97087.66
2022-11-17T23:03:58.457Z,97089.53
2022-11-17T23:06:27.435Z,97094.78
2022-11-17T23:08:56.168Z,97088.72
2022-11-17T23:11:39.551Z,97095.88
2022-11-17T23:14:11.246Z,97096.81
2022-11-17T23:16:39.479Z,97103.41
2022-11-17T23:19:07.214Z,97105.94
2022-11-17T23:21:34.348Z,97107.06
2022-11-17T23:24:01.151Z,97112.31
2022-11-17T23:26:28.380Z,97100.94
2022-11-17T23:28:55.528Z,97105.97
2022-11-17T23:31:22.603Z,97102.47
2022-11-17T23:33:49.538Z,97100.63
2022-11-17T23:36:20.146Z,97103.25
2022-11-17T23:38:49.255Z,97110.03
2022-11-17T23:41:19.875Z,97095.78
2022-11-17T23:43:52.311Z,97103.25
2022-11-17T23:46:23.442Z,97106.56
2022-11-17T23:48:50.691Z,97098.50
2022-11-17T23:51:22.977Z,97093.16
2022-11-17T23:53:50.537Z,97087.09
2022-11-17T23:56:20.457Z,97072.19
2022-11-17T23:58:48.025Z,97087.00
